x

West Gulf - 207 Nm East Of Brownsville, Tx (42002) Wave Buoy

6:50pm - Sun 28th Aug 2016 All times are CDT. -5 hours from GMT.

  • Sig Wave height 1.6ft
  • Swell Direction
  • Peak Period 6s
  • Average Period 4s
  • Wind
    4mph, 7mph gusts
  • Sea Temp 87°f
  • Air Temp 85°f
  • Sea Pressure 1009.8mb
  • West Gulf - 207 Nm East Of Brownsville, Tx
  • West Gulf - 207 Nm East Of Brownsville, Tx

More Historic Weather Station data

Upgrade to MSW Pro to gain access to the past 30 days of data for over 8000 Wavebouys and Weather Stations around the globe.

Join Pro

Comparision Forecast

View Surf forecast
   
Sun 08/28 6:50pm 1.6ft 6s 4s 4 7 mph 1009.8mb 87f 85f
5:50pm 1.6ft 6s 4s 7
mph
1010mb 88f 86f
4:50pm 1.6ft 6s 4s 7 9 mph 1010.4mb 88f 86f
3:50pm 1.6ft 6s 4s 7 9 mph 1010.9mb 87f 86f
2:50pm 1.3ft 6s 4s 9
mph
1011.7mb 87f 85f
1:50pm 1.6ft 6s 5s 11 13 mph 1012.2mb 87f 86f
12:50pm 1.6ft 6s 5s 9 11 mph 1012.6mb 87f 85f
11:50am 1.6ft 7s 6s 9 13 mph 1012.7mb 87f 85f
10:50am 1.6ft 6s 5s 7 9 mph 1012.9mb 87f 85f
9:50am 1.6ft 7s 5s 4 7 mph 1012.6mb 87f 85f
8:50am 1.6ft 6s 5s 2 4 mph 1012.7mb 87f 85f
7:50am 1.6ft 6s 5s 2 4 mph 1012.4mb 87f 85f
6:50am 1.6ft 6s 5s 2 4 mph 1011.9mb 87f 84f
5:50am 2ft 6s 5s 4 7 mph 1011.4mb 86f 84f
4:50am 2ft 6s 5s 4
mph
1011.6mb 86f 84f
3:50am 1.6ft 7s 5s 4 7 mph 1011.6mb 86f 84f
2:50am 2ft 7s 5s 4 7 mph 1011.6mb 86f 84f
1:50am 2ft 7s 5s 4 7 mph 1012mb 87f 85f
12:50am 2ft 6s 5s 4 7 mph 1012.4mb 87f 85f
Sat 08/27 11:50pm 2ft 7s 5s 4 7 mph 1012.6mb 87f 85f
10:50pm 2ft 7s 5s 4 7 mph 1012.6mb 87f 85f
9:50pm 2.5ft 7s 5s 7 9 mph 1011.9mb 87f 85f
8:50pm 2ft 7s 5s 4 7 mph 1011.3mb 87f 85f
7:50pm 2.5ft 7s 5s 7 9 mph 1010.4mb 87f 85f
6:50pm 2ft 7s 5s 7 9 mph 1010.3mb 87f 86f
5:50pm 2.5ft 7s 5s 7 9 mph 1010.2mb 87f 85f
4:50pm 2.5ft 7s 6s 7 9 mph 1010.3mb 88f 85f
3:50pm 2.5ft 7s 6s 4 7 mph 1010.6mb 88f 85f
2:50pm 2.5ft 7s 5s 7 9 mph 1011.4mb 88f 85f
1:50pm 2.5ft 7s 6s 4 7 mph 1012mb 87f 84f
12:50pm 2ft 7s 5s 9 11 mph 1012.6mb 87f 84f
11:50am 2.5ft 8s 6s 4 7 mph 1012.9mb 87f 85f
10:50am 2.5ft 7s 6s 4 7 mph 1013.2mb 87f 84f
9:50am 2.5ft 7s 5s 2 4 mph 1012.9mb 86f 84f
8:50am 2.5ft 7s 6s 2
mph
1012.7mb 86f 86f
7:50am 2.5ft 7s 5s  -  2 mph 1012.1mb 86f 86f
6:50am 3ft 7s 5s 2
mph
1011.9mb 86f 83f
5:50am 3ft 7s 5s  -  2 mph 1011.5mb 86f 83f
4:50am 3ft 7s 5s  -  2 mph 1011.5mb 86f 84f
3:50am 2.5ft 7s 5s 2 4 mph 1011.7mb 86f 84f
2:50am 2.5ft 7s 5s 2 4 mph 1012.1mb 86f 84f
1:50am 2.5ft 7s 5s 2 4 mph 1012.5mb 86f 84f
12:50am 2.5ft 6s 5s 7 9 mph 1012.8mb 86f 85f
Fri 08/26 11:50pm 2.5ft 6s 5s 9
mph
1013.1mb 86f 85f
10:50pm 2.5ft 6s 5s 9 11 mph 1012.9mb 86f 85f
9:50pm 2.5ft 6s 5s 9 11 mph 1012.7mb 86f 85f
8:50pm 2.5ft 6s 5s 11
mph
1012.2mb 87f 85f
7:50pm 2.5ft 6s 5s 11 13 mph 1011.7mb 87f 85f
6:50pm 2.5ft 6s 5s 9 11 mph 1011.8mb 87f 86f
5:50pm 2.5ft 7s 5s 9 11 mph 1011.9mb 87f 86f
4:50pm 2.5ft 7s 5s 9 11 mph 1011.8mb 87f 85f
3:50pm 2.5ft 7s 5s 9 11 mph 1012mb 87f 85f
2:50pm 3ft 7s 5s 9 11 mph 1012.6mb 87f 85f
1:50pm 2.5ft 7s 5s 9 11 mph 1013.2mb 87f 85f
12:50pm 2.5ft 7s 5s 9 11 mph 1013.5mb 87f 85f
11:50am 2.5ft 6s 5s 9 11 mph 1013.9mb 87f 85f
10:50am 2.5ft 7s 5s 7 9 mph 1014.2mb 86f 85f
9:50am 2.5ft 6s 5s 7 9 mph 1014.3mb 86f 85f
8:50am 3ft 6s 5s 4 7 mph 1014.1mb 86f 85f
7:50am 3ft 6s 5s 7
mph
1013.9mb 86f 85f
6:50am 3.5ft 6s 5s 4 7 mph 1013.5mb 86f 84f
5:50am 3.5ft 6s 5s 2 4 mph 1013.2mb 86f 84f
4:50am 3.5ft 6s 5s 4 7 mph 1013.6mb 86f 84f
3:50am 3.5ft 6s 5s 9 11 mph 1013.7mb 86f 83f
2:50am 3ft 5s 4s 9
mph
1013.8mb 86f 85f
1:50am 3ft 5s 4s 13 16 mph 1014mb 86f 85f
12:50am 2.5ft 5s 4s 13 16 mph 1014.2mb 86f 85f
Thu 08/25 11:50pm 3ft 5s 4s 16 18 mph 1014.3mb 86f 85f
10:50pm 2.5ft 5s 4s 16 18 mph 1014.5mb 86f 85f
9:50pm 2.5ft 4s 4s 16 18 mph 1014.1mb 86f 85f
8:50pm 2.5ft 4s 4s 13 16 mph 1013.8mb 86f 85f
7:50pm 1.6ft 4s 3s 16 20 mph 1013.5mb 87f 85f
6:50pm 1.6ft 4s 3s 13
mph
1013.3mb 87f 86f
5:50pm 1.6ft 4s 4s 13 16 mph 1013.2mb 87f 86f
4:50pm 1.3ft 5s 4s 11 16 mph 1013.5mb 87f 86f
3:50pm 1.3ft 5s 4s 11 13 mph 1013.8mb 87f 86f
2:50pm 1.3ft 5s 4s 9 11 mph 1014.5mb 87f 86f
1:50pm 1.3ft 5s 4s 11 13 mph 1015.2mb 87f 86f
12:50pm 1.3ft 5s 4s 9 11 mph 1015.8mb 87f 85f
11:50am 1.3ft 4s 4s 7 9 mph 1016.3mb 87f 86f
10:50am 1.3ft 5s 4s 9 11 mph 1016.6mb 87f 86f
9:50am 1.3ft 5s 4s 4 7 mph 1016.6mb 86f 86f
8:50am 1.6ft 5s 4s 4 7 mph 1016.4mb 86f 86f
7:50am 1.6ft 5s 4s 4 7 mph 1016.1mb 86f 86f
6:50am 1.6ft 5s 4s 4 7 mph 1015.7mb 86f 85f
5:50am 1.6ft 4s 4s 4 7 mph 1015.5mb 86f 85f
4:50am 1.6ft 5s 4s 7
mph
1015.4mb 86f 85f
3:50am 1.6ft 5s 4s 7 9 mph 1015.5mb 86f 85f
2:50am 1.6ft 5s 4s 9
mph
1015.8mb 86f 85f
1:50am 1.6ft 5s 4s 11
mph
1016.1mb 86f 85f